Alta, Illinois
Current Conditions -  °F | °C
As of 12:54 AM on Sunday 21 Dec 2014 (Local Time) from KPIA Reporting Station
Overcast Overcast  
Wind Chill: 30°   Ceiling: 2700
Heat Index: 36°   Visibility: 8mi
Dew Point: 29°   Wind: 8mph
Humidity: 76%   Direction: 160°SSE
Pressure: 30.22"   Gusts: NA
Location:  40.7792°N, 89.6377°W
Report Text: KPIA 210654Z 16007KT 8SM OVC027 02/M02 A3022 RMK AO2 SLP238 T00221017
Loading
Personal Weather Stations






























Interactive Weather Map New forecast layout! Learn more

10-Day Weather Forecast

Advertisements
Track Severe Weather on mobile